Airfield :
LOGIN :

Register | Disclaimer

   EN    FR    IT 

 










Legend :    VFR   Marginal VFR   IFR   Intensive IFR   Very Intensive IFR
Visi :
Ceiling :
>= 8 km
>= 3000ft
5 to 8 km
1000 to 3000 ft
1500m to 5 km
500 to 1000 ft
800 to 1500m
200 to 500 ft
< 800m
< 200 ft
Symbols :   Thunderstorms  Fog  Heavy snow  Heavy precipitations  Wind > 20 kt
SIGMETs :     Misc.  Thunderstorms  Icing  Turbulence  Mountain Waves  Volcanic Ashes







- Airport Elevation : 300 ft
- IATA code : MLA


LMML - Malta Luqa

CURRENT METAR :
  • 141815Z 28006KT 9999 FEW028 BKN040 15/10 Q1021 NOSIG

EXPIRED METARs :
  • 141745Z 28007KT 9999 SCT025 SCT040 15/10 Q1021 NOSIG
  • 141715Z 27005KT 9999 SCT024 14/10 Q1021 NOSIG
  • 141645Z 28005KT 9999 FEW028 SCT043 14/10 Q1021 NOSIG
  • 141615Z 29007KT 9999 FEW028 14/10 Q1021 NOSIG
  • 141545Z 30009KT 9999 FEW028 15/09 Q1021 NOSIG

TAF TAF LMML
Valid from the 14 at 18:00 until the 15 at 18:00 UTC


141700Z 1418/1518 27005KT 9999 SCT020
BECMG 1420/1423 24015KT
TEMPO 1508/1518 23018G28KT
No reported NOTAMs for that airfield.
1 SIGMET reported for the Malta FIR (LMMM) :
 
Severe turbulence
LMMM SIGMET 2 VALID 141520/141920 LMML
LMMM MALTA FIR SEV TURB FCST MALTA FIR FL250/420 STNR NC=



MET'MAP, your aeronautical weather chart ! - Copyright ORBIFLY December 2007 - Disclaimer

ORBIFLY MET'MAP TEAM :

Programming & Development : Alexandra Zaïnal
Concept & Development : Baudouin d'Aumeries
Co-Development & Prog : Marc-Olivier Méhu
Technical & hardware support : Manuel Goepfert

Contact : metmap@orbifly.com




SOURCES & CREDITS :

   NOAA